Time;durP1;ratioP1;P1;durP2;ratioP2;P2;SDS_P1;SDS_P2;PMS_P1;PMS_P2;Temp;Humidity;BMP_temperature;BMP_pressure;BME280_temperature;BME280_humidity;BME280_pressure;Samples;Min_cycle;Max_cycle;Signal;HPM_P1;HPM_P2
2021/12/31 00:00:51;;;;;;;4.72;4.18;;;;;;;28.67;47.04;101317.84;5015569;28;66538;-37
2021/12/31 00:03:22;;;;;;;5.32;4.38;;;;;;;28.71;46.67;101324.50;5017513;28;69999;-36
2021/12/31 00:05:53;;;;;;;4.85;4.47;;;;;;;28.73;47.40;101323.28;5015167;28;65694;-37
2021/12/31 00:08:23;;;;;;;4.82;4.53;;;;;;;28.76;46.89;101327.44;5015478;28;69344;-37
2021/12/31 00:10:59;;;;;;;9.57;4.65;;;;;;;28.76;47.28;101324.75;5015315;28;66201;-38
2021/12/31 00:13:30;;;;;;;8.80;4.50;;;;;;;28.79;47.37;101327.06;5031815;28;69814;-38
2021/12/31 00:16:00;;;;;;;13.65;6.43;;;;;;;28.84;47.68;101327.31;5012605;28;65981;-38
2021/12/31 00:18:31;;;;;;;24.85;7.50;;;;;;;28.89;48.35;101327.56;5018672;28;70634;-39
2021/12/31 00:21:02;;;;;;;29.02;8.95;;;;;;;28.95;48.63;101342.97;5015466;28;65428;-38
2021/12/31 00:23:32;;;;;;;18.27;9.05;;;;;;;28.99;48.92;101343.41;5013462;28;70735;-39
2021/12/31 00:26:02;;;;;;;16.40;11.52;;;;;;;28.96;48.58;101333.84;5019344;28;66535;-38
2021/12/31 00:28:32;;;;;;;41.65;13.95;;;;;;;28.88;48.97;101333.97;5017531;28;69091;-39
2021/12/31 00:31:03;;;;;;;42.78;12.48;;;;;;;28.81;49.70;101325.00;5033231;28;65733;-38
2021/12/31 00:33:33;;;;;;;35.45;12.07;;;;;;;28.83;49.84;101341.00;5018571;28;70299;-39
2021/12/31 00:36:04;;;;;;;36.60;12.90;;;;;;;28.84;50.37;101337.28;5017931;28;66875;-38
2021/12/31 00:38:34;;;;;;;22.08;11.25;;;;;;;28.93;50.56;101353.13;5017557;28;70631;-39
2021/12/31 00:41:04;;;;;;;35.80;11.48;;;;;;;28.99;51.01;101347.97;5018887;28;65633;-39
2021/12/31 00:43:35;;;;;;;31.50;11.82;;;;;;;28.95;51.53;101347.53;5017571;28;69900;-41
2021/12/31 00:46:05;;;;;;;29.40;10.90;;;;;;;28.96;51.33;101350.03;5012693;28;66587;-38
2021/12/31 00:48:36;;;;;;;20.55;10.77;;;;;;;29.00;51.18;101357.75;5018042;28;69563;-39
2021/12/31 00:51:06;;;;;;;17.38;10.23;;;;;;;29.02;50.87;101358.38;5011220;28;66690;-39
2021/12/31 00:53:37;;;;;;;23.02;10.52;;;;;;;29.03;51.30;101351.94;5031131;28;70103;-39
2021/12/31 00:56:08;;;;;;;20.65;10.82;;;;;;;29.04;51.12;101350.97;5015648;28;67083;-39
2021/12/31 00:58:38;;;;;;;34.05;11.02;;;;;;;29.07;50.70;101350.56;5014002;28;70515;-39
2021/12/31 01:01:16;;;;;;;24.77;10.38;;;;;;;29.09;50.54;101359.31;5015486;28;67331;-39
2021/12/31 01:03:48;;;;;;;17.55;10.68;;;;;;;29.10;50.82;101358.28;5015437;28;70156;-39
2021/12/31 01:06:18;;;;;;;15.35;9.48;;;;;;;29.07;50.43;101361.38;5015251;28;65201;-39
2021/12/31 01:08:49;;;;;;;14.65;8.93;;;;;;;29.12;50.38;101358.91;5016409;28;70074;-40
2021/12/31 01:11:19;;;;;;;25.05;10.10;;;;;;;29.15;50.47;101361.22;5018174;28;66605;-39
2021/12/31 01:16:22;;;;;;;12.82;8.73;;;;;;;29.20;50.05;101366.88;5017732;28;66778;-38
2021/12/31 01:21:23;;;;;;;12.93;7.88;;;;;;;29.23;49.95;101382.69;5019558;28;66018;-39
2021/12/31 01:23:57;;;;;;;12.07;8.73;;;;;;;29.17;50.37;101372.69;5019143;28;70339;-38
2021/12/31 01:26:30;;;;;;;12.85;9.25;;;;;;;29.25;50.20;101395.97;5015821;28;66524;-38
2021/12/31 01:29:00;;;;;;;12.30;8.70;;;;;;;29.23;49.92;101398.91;5018800;28;69761;-40
2021/12/31 01:31:30;;;;;;;11.95;8.73;;;;;;;29.28;50.14;101395.59;5015597;28;66314;-40
2021/12/31 01:34:01;;;;;;;10.15;8.40;;;;;;;29.29;50.05;101403.50;5017309;28;70470;-39
2021/12/31 01:36:32;;;;;;;9.77;8.50;;;;;;;29.32;50.03;101407.69;5018372;28;66063;-39
2021/12/31 01:39:03;;;;;;;9.80;7.82;;;;;;;29.31;49.71;101412.25;5018254;28;69854;-39
2021/12/31 01:41:34;;;;;;;9.35;8.45;;;;;;;29.34;50.09;101408.34;5011874;28;66424;-38
2021/12/31 01:44:05;;;;;;;10.95;7.85;;;;;;;29.35;50.17;101402.72;5012745;28;69852;-39
2021/12/31 01:46:39;;;;;;;9.95;7.45;;;;;;;29.35;49.63;101402.72;5011575;28;66597;-39
2021/12/31 01:49:41;;;;;;;10.85;7.80;;;;;;;29.29;50.24;101400.81;5014726;28;70679;-39
2021/12/31 01:52:12;;;;;;;8.32;7.57;;;;;;;29.24;49.35;101378.94;5017379;28;65704;-38
2021/12/31 01:54:42;;;;;;;8.48;7.55;;;;;;;29.38;49.51;101402.31;5015327;28;69711;-38
2021/12/31 01:57:13;;;;;;;11.43;7.68;;;;;;;29.42;50.04;101400.06;5014092;28;66583;-39
2021/12/31 01:59:44;;;;;;;8.25;7.45;;;;;;;29.42;49.53;101401.91;5015414;28;70417;-39
2021/12/31 02:02:15;;;;;;;7.47;6.88;;;;;;;29.45;49.42;101404.22;5012549;28;66087;-39
2021/12/31 02:04:45;;;;;;;7.80;6.97;;;;;;;29.46;49.70;101404.03;5015446;28;70317;-39
2021/12/31 02:07:16;;;;;;;7.50;6.85;;;;;;;29.48;49.47;101411.97;5002359;28;67889;-38
2021/12/31 02:09:50;;;;;;;7.82;7.22;;;;;;;29.49;49.77;101397.41;5010843;28;69106;-39
2021/12/31 02:12:25;;;;;;;9.27;7.22;;;;;;;29.52;49.44;101397.00;5008766;28;65745;-39
2021/12/31 02:14:56;;;;;;;7.40;6.63;;;;;;;29.53;49.91;101398.66;5009557;28;69510;-39
2021/12/31 02:17:26;;;;;;;7.50;6.80;;;;;;;29.55;49.24;101402.00;5014603;28;65285;-39
2021/12/31 02:20:06;;;;;;;8.60;6.75;;;;;;;29.54;49.44;101394.94;5016328;28;69556;-39
2021/12/31 02:22:49;;;;;;;9.13;6.50;;;;;;;29.35;49.72;101358.66;5014977;28;65671;-40
2021/12/31 02:25:22;;;;;;;7.63;6.95;;;;;;;29.59;49.10;101397.88;5015705;28;70899;-39
2021/12/31 02:27:52;;;;;;;10.13;7.88;;;;;;;29.58;49.40;101393.50;5016822;28;65423;-39
2021/12/31 02:30:23;;;;;;;7.15;6.53;;;;;;;29.62;49.30;101397.50;5012340;28;70107;-39
2021/12/31 02:32:53;;;;;;;7.68;6.88;;;;;;;29.59;49.47;101389.78;5006449;28;66753;-39
2021/12/31 02:35:24;;;;;;;12.10;6.35;;;;;;;29.61;49.01;101393.09;5007036;28;70336;-40
2021/12/31 02:37:54;;;;;;;7.22;6.53;;;;;;;29.67;49.45;101403.16;5007737;28;66044;-40
2021/12/31 02:40:28;;;;;;;8.65;7.32;;;;;;;29.69;49.46;101398.38;5004681;28;70822;-39
2021/12/31 02:42:59;;;;;;;5.78;5.43;;;;;;;29.71;49.17;101401.72;5012816;28;66228;-39
2021/12/31 02:45:34;;;;;;;7.47;6.70;;;;;;;29.72;49.16;101397.97;5007793;28;69859;-39
2021/12/31 02:48:06;;;;;;;6.22;5.72;;;;;;;29.74;49.50;101393.19;5014075;28;65819;-40
2021/12/31 02:50:41;;;;;;;7.00;6.30;;;;;;;29.59;48.80;101363.56;5012330;28;70171;-39
2021/12/31 02:53:14;;;;;;;7.57;6.07;;;;;;;29.64;48.87;101362.97;5012970;28;66133;-40
2021/12/31 02:55:44;;;;;;;6.90;5.78;;;;;;;29.78;49.35;101380.97;5010866;28;68970;-40
2021/12/31 02:58:15;;;;;;;5.93;5.43;;;;;;;29.81;48.80;101385.97;5014358;28;65908;-39
2021/12/31 03:00:45;;;;;;;6.30;5.90;;;;;;;29.82;49.37;101387.63;5016019;28;69907;-40
2021/12/31 03:03:18;;;;;;;7.82;6.13;;;;;;;29.86;48.74;101387.22;5010940;28;66648;-40
2021/12/31 03:05:54;;;;;;;6.15;5.75;;;;;;;29.87;49.00;101384.34;5008767;28;69252;-39
2021/12/31 03:08:29;;;;;;;6.28;5.88;;;;;;;29.77;48.75;101352.25;5016235;28;65690;-40
2021/12/31 03:11:03;;;;;;;6.68;6.00;;;;;;;29.89;48.58;101376.81;5014462;28;70441;-40
2021/12/31 03:13:35;;;;;;;8.23;6.03;;;;;;;29.94;48.89;101373.53;5015569;28;66579;-40
2021/12/31 03:16:07;;;;;;;6.35;5.60;;;;;;;29.93;49.09;101366.47;5012865;28;70080;-40
2021/12/31 03:18:39;;;;;;;6.78;6.18;;;;;;;29.94;49.00;101368.94;5016368;28;65340;-42
2021/12/31 03:21:20;;;;;;;6.28;5.68;;;;;;;29.98;48.94;101372.09;5016256;28;69267;-40
2021/12/31 03:23:54;;;;;;;6.00;5.50;;;;;;;29.82;48.53;101344.34;5011437;28;66323;-41
2021/12/31 03:26:25;;;;;;;6.38;5.78;;;;;;;30.00;49.17;101361.88;4991566;28;70583;-40
2021/12/31 03:28:56;;;;;;;6.15;5.35;;;;;;;30.03;48.67;101356.06;5016659;28;65814;-40
2021/12/31 03:31:27;;;;;;;6.63;5.93;;;;;;;29.94;49.12;101341.06;4961015;28;69029;-40
2021/12/31 03:33:58;;;;;;;6.75;6.15;;;;;;;30.06;48.46;101355.66;5012835;28;66328;-40
2021/12/31 03:36:28;;;;;;;5.45;5.10;;;;;;;30.09;48.94;101355.28;5009949;28;70316;-40
2021/12/31 03:38:58;;;;;;;6.57;5.50;;;;;;;30.10;48.29;101335.28;5013335;28;65883;-39
2021/12/31 03:41:29;;;;;;;6.35;5.70;;;;;;;30.12;48.20;101327.00;5010471;28;69444;-40
2021/12/31 03:43:59;;;;;;;6.80;6.30;;;;;;;30.15;48.30;101321.16;5010696;28;66125;-39
2021/12/31 03:46:30;;;;;;;6.10;5.50;;;;;;;30.17;48.67;101328.03;5013457;28;70717;-41
2021/12/31 03:49:01;;;;;;;5.60;5.20;;;;;;;30.18;48.48;101327.00;5011346;28;65722;-40
2021/12/31 03:51:31;;;;;;;6.53;5.93;;;;;;;30.19;48.39;101312.41;5015362;28;70018;-41
2021/12/31 03:54:02;;;;;;;6.47;5.88;;;;;;;30.23;48.31;101319.13;5011577;28;66577;-39
2021/12/31 03:56:33;;;;;;;6.00;5.57;;;;;;;30.26;48.30;101317.88;5009504;28;70371;-40
2021/12/31 03:59:03;;;;;;;5.95;5.35;;;;;;;30.16;48.68;101296.59;5016881;28;66586;-40
2021/12/31 04:01:34;;;;;;;6.43;5.72;;;;;;;30.25;48.60;101306.19;5008711;28;69749;-40
2021/12/31 04:04:06;;;;;;;6.93;5.93;;;;;;;30.31;47.94;101301.84;5006223;28;66084;-39
2021/12/31 04:06:36;;;;;;;6.57;5.82;;;;;;;30.33;48.19;101307.06;5001765;28;70161;-39
2021/12/31 04:09:07;;;;;;;6.05;5.60;;;;;;;30.35;48.00;101304.97;5006719;28;66388;-39
2021/12/31 04:11:38;;;;;;;5.43;4.97;;;;;;;30.39;48.54;101303.53;5014406;28;71607;-39
2021/12/31 04:14:08;;;;;;;5.25;4.85;;;;;;;30.43;48.31;101302.06;5013992;28;65691;-39
2021/12/31 04:16:39;;;;;;;8.02;5.55;;;;;;;30.43;48.41;101294.78;5013160;28;69734;-39
2021/12/31 04:19:10;;;;;;;6.43;5.82;;;;;;;30.46;48.31;101296.25;5015059;28;66122;-39
2021/12/31 04:21:42;;;;;;;6.13;5.63;;;;;;;30.49;47.79;101296.66;5016654;28;71264;-40
2021/12/31 04:24:28;;;;;;;10.48;5.55;;;;;;;30.54;48.00;101289.81;5013032;28;66771;-39
2021/12/31 04:26:59;;;;;;;6.15;5.60;;;;;;;30.49;47.75;101268.75;5010535;28;69545;-39
2021/12/31 04:29:29;;;;;;;7.30;5.05;;;;;;;30.58;48.35;101283.75;5008015;28;65212;-39
2021/12/31 04:32:00;;;;;;;6.50;5.90;;;;;;;30.58;48.02;101275.63;5011536;28;69711;-41
2021/12/31 04:34:31;;;;;;;7.85;5.90;;;;;;;30.62;48.31;101273.31;5006828;28;65253;-40
2021/12/31 04:37:01;;;;;;;8.45;5.90;;;;;;;30.65;48.23;101268.34;5010281;28;69357;-40
2021/12/31 04:39:32;;;;;;;5.97;5.35;;;;;;;30.66;47.87;101256.44;5012191;28;66126;-39
2021/12/31 04:42:03;;;;;;;6.15;5.63;;;;;;;30.69;47.69;101261.44;5006459;28;70271;-40
2021/12/31 04:44:33;;;;;;;6.90;6.32;;;;;;;30.73;47.94;101248.34;5010950;28;66547;-39
2021/12/31 04:47:05;;;;;;;6.03;5.55;;;;;;;30.76;47.73;101247.91;5012358;28;69525;-40
2021/12/31 04:49:35;;;;;;;8.50;6.05;;;;;;;30.77;47.71;101243.31;5018438;28;65502;-39
2021/12/31 04:52:07;;;;;;;6.40;5.90;;;;;;;30.78;47.69;101228.72;5017989;28;70309;-40
2021/12/31 04:54:37;;;;;;;6.68;6.07;;;;;;;30.80;47.97;101222.09;5019038;28;66319;-40
2021/12/31 04:57:08;;;;;;;6.38;5.88;;;;;;;30.83;47.33;101215.41;5018793;28;70206;-40
2021/12/31 04:59:38;;;;;;;7.03;6.40;;;;;;;30.85;47.76;101213.34;5014211;28;66525;-41
2021/12/31 05:02:08;;;;;;;6.80;6.22;;;;;;;30.85;47.70;101216.06;5014162;28;69603;-40
2021/12/31 05:04:39;;;;;;;6.45;5.95;;;;;;;30.89;47.43;101207.25;4993136;28;66237;-40
2021/12/31 05:07:10;;;;;;;6.80;6.20;;;;;;;30.91;47.59;101201.66;5009763;28;69229;-40
2021/12/31 05:09:40;;;;;;;6.18;5.50;;;;;;;30.93;47.97;101189.56;5010691;28;66689;-40
2021/12/31 05:12:15;;;;;;;6.18;5.63;;;;;;;30.95;47.71;101186.63;5015783;28;69531;-40
2021/12/31 05:14:45;;;;;;;5.90;5.50;;;;;;;30.98;47.83;101191.63;5011933;28;66098;-39
2021/12/31 05:17:16;;;;;;;7.95;5.32;;;;;;;30.96;47.53;101180.19;5012246;28;70237;-42
2021/12/31 05:19:46;;;;;;;5.97;5.47;;;;;;;31.02;47.70;101182.03;5017737;28;66661;-40
2021/12/31 05:22:16;;;;;;;6.50;6.00;;;;;;;31.04;47.96;101174.53;5018496;28;70534;-40
2021/12/31 05:24:47;;;;;;;6.60;6.05;;;;;;;31.06;47.96;101171.56;5013125;28;65842;-40
2021/12/31 05:27:17;;;;;;;7.05;5.47;;;;;;;31.06;47.90;101166.16;5017124;28;70152;-40
2021/12/31 05:29:48;;;;;;;7.57;5.35;;;;;;;31.08;47.69;101169.50;4993596;28;66254;-41
2021/12/31 05:32:18;;;;;;;6.47;5.70;;;;;;;31.09;47.94;101155.75;5010738;28;70198;-39
2021/12/31 05:34:48;;;;;;;6.32;5.60;;;;;;;31.12;47.92;101155.31;5026356;28;65743;-40
2021/12/31 05:37:19;;;;;;;6.35;5.85;;;;;;;31.14;48.00;101147.78;5016747;28;70172;-40
2021/12/31 05:39:49;;;;;;;5.72;5.25;;;;;;;31.16;47.81;101145.69;5016594;28;65503;-41
2021/12/31 05:42:20;;;;;;;7.88;5.90;;;;;;;31.19;47.95;101135.47;5011119;28;69834;-40
2021/12/31 05:44:50;;;;;;;6.78;5.22;;;;;;;31.21;47.98;101125.25;5020081;28;66401;-40
2021/12/31 05:47:21;;;;;;;5.65;5.25;;;;;;;31.23;47.78;101128.56;5018379;28;71064;-41
2021/12/31 05:49:52;;;;;;;6.18;5.68;;;;;;;31.21;47.35;101109.00;5018119;28;66510;-40
2021/12/31 05:52:23;;;;;;;5.82;5.28;;;;;;;31.24;47.43;101114.81;5017070;28;69483;-40
2021/12/31 05:54:53;;;;;;;6.20;5.70;;;;;;;31.11;47.74;101094.03;5017525;28;65913;-39
2021/12/31 05:57:23;;;;;;;7.55;5.68;;;;;;;31.28;47.59;101107.88;5016443;28;70541;-39
2021/12/31 05:59:54;;;;;;;5.90;5.35;;;;;;;31.29;47.99;101093.31;5013202;28;66542;-40
2021/12/31 06:02:24;;;;;;;6.25;5.20;;;;;;;31.31;47.74;101082.22;5012817;28;70478;-40
2021/12/31 06:04:55;;;;;;;6.03;5.25;;;;;;;31.27;47.57;101081.03;5014166;28;66247;-39
2021/12/31 06:07:25;;;;;;;5.80;5.40;;;;;;;31.33;47.64;101074.72;5017175;28;69916;-39
2021/12/31 06:09:55;;;;;;;5.88;5.07;;;;;;;31.31;47.74;101065.97;5017442;28;65796;-40
2021/12/31 06:12:27;;;;;;;6.13;5.53;;;;;;;31.36;47.61;101063.47;5017972;28;68721;-40
2021/12/31 06:15:02;;;;;;;5.35;4.85;;;;;;;31.21;47.92;101041.25;5019511;28;65612;-40
2021/12/31 06:17:32;;;;;;;5.80;5.07;;;;;;;31.39;47.46;101063.03;5011292;28;69283;-40
2021/12/31 06:20:05;;;;;;;6.45;5.13;;;;;;;31.26;47.88;101031.41;5018725;28;66242;-41
2021/12/31 06:22:35;;;;;;;11.93;5.40;;;;;;;31.42;47.53;101051.75;5018151;28;69984;-40
2021/12/31 06:25:07;;;;;;;6.00;5.43;;;;;;;31.44;47.68;101044.22;5017295;28;66602;-41
2021/12/31 06:27:37;;;;;;;6.10;5.60;;;;;;;31.44;47.47;101041.50;5018696;28;69436;-39
2021/12/31 06:30:08;;;;;;;5.93;5.38;;;;;;;31.46;47.95;101036.72;5018073;28;66185;-40
2021/12/31 06:32:39;;;;;;;5.68;5.18;;;;;;;31.48;47.64;101037.31;5034596;28;71346;-40
2021/12/31 06:35:10;;;;;;;6.43;5.80;;;;;;;31.51;47.84;101031.47;5018386;28;65759;-40
2021/12/31 06:37:40;;;;;;;4.78;4.45;;;;;;;31.52;47.34;101024.16;5017370;28;69547;-39
2021/12/31 06:40:12;;;;;;;9.45;5.47;;;;;;;31.54;47.65;101033.72;5013069;28;65718;-40
2021/12/31 06:42:42;;;;;;;7.82;5.45;;;;;;;31.45;47.44;101007.91;5014973;28;69522;-40
2021/12/31 06:45:13;;;;;;;5.15;4.82;;;;;;;31.55;47.35;101015.56;5010297;28;65198;-39
2021/12/31 06:47:43;;;;;;;6.07;5.10;;;;;;;31.61;47.78;101018.22;5015651;28;70247;-39
2021/12/31 06:50:13;;;;;;;5.00;4.60;;;;;;;31.61;47.55;101018.22;5014516;28;66006;-40
2021/12/31 06:52:45;;;;;;;6.45;5.15;;;;;;;31.61;47.41;101012.78;5015633;28;69902;-40
2021/12/31 06:55:15;;;;;;;5.03;4.70;;;;;;;31.63;47.37;101011.75;5015422;28;66423;-40
2021/12/31 06:57:47;;;;;;;5.82;4.63;;;;;;;31.65;47.35;101012.34;5008525;28;69914;-41
2021/12/31 07:00:17;;;;;;;5.40;5.00;;;;;;;31.67;47.33;100999.41;5007326;28;65880;-39
2021/12/31 07:02:48;;;;;;;4.70;4.30;;;;;;;31.69;47.63;101000.00;5010625;28;69521;-40
2021/12/31 07:05:18;;;;;;;4.80;4.43;;;;;;;31.71;47.36;100995.19;5016359;28;66323;-40
2021/12/31 07:07:48;;;;;;;5.28;4.88;;;;;;;31.78;47.37;100995.94;5010561;28;69604;-40
2021/12/31 07:10:19;;;;;;;5.00;4.55;;;;;;;31.80;47.22;100993.84;4993126;28;66292;-39
2021/12/31 07:12:49;;;;;;;6.43;5.00;;;;;;;31.80;47.05;100988.44;5015336;28;69606;-41
2021/12/31 07:15:20;;;;;;;4.85;4.40;;;;;;;31.86;47.12;100992.94;5015556;28;65645;-40
2021/12/31 07:17:50;;;;;;;4.78;3.97;;;;;;;31.89;47.12;100983.53;5000264;28;69783;-40
2021/12/31 07:20:21;;;;;;;4.38;4.10;;;;;;;31.93;46.97;100991.03;5007797;28;66005;-40
2021/12/31 07:22:51;;;;;;;4.55;4.15;;;;;;;31.94;47.17;100989.97;5004913;28;69209;-39
2021/12/31 07:25:22;;;;;;;5.05;4.75;;;;;;;31.85;46.89;100972.31;5002594;28;66354;-40
2021/12/31 07:27:53;;;;;;;5.00;4.10;;;;;;;32.00;46.83;100986.34;5005667;28;69372;-39
2021/12/31 07:30:24;;;;;;;6.18;4.53;;;;;;;32.01;47.03;100984.47;5012399;28;66633;-40
2021/12/31 07:32:55;;;;;;;5.43;5.03;;;;;;;32.02;47.13;100984.25;5005917;28;70225;-40
2021/12/31 07:35:26;;;;;;;5.88;4.43;;;;;;;31.99;46.99;100973.84;5015286;28;66149;-40
2021/12/31 07:37:57;;;;;;;4.50;3.93;;;;;;;32.10;47.18;100982.31;5007590;28;69766;-40
2021/12/31 07:40:38;;;;;;;4.68;3.88;;;;;;;32.13;47.26;100977.25;5012011;28;65738;-40
2021/12/31 07:43:11;;;;;;;4.30;3.90;;;;;;;32.01;46.83;100946.47;5005281;28;69746;-39
2021/12/31 07:45:41;;;;;;;4.82;4.43;;;;;;;32.20;46.63;100977.16;5015056;28;66001;-40
2021/12/31 07:48:12;;;;;;;5.37;4.37;;;;;;;32.22;46.87;100969.63;5014752;28;69428;-40
2021/12/31 07:50:43;;;;;;;3.92;3.63;;;;;;;32.26;46.70;100973.53;5014774;28;65628;-39
2021/12/31 07:53:15;;;;;;;4.20;3.90;;;;;;;32.29;46.56;100970.38;5015822;28;69917;-40
2021/12/31 07:55:45;;;;;;;3.90;3.60;;;;;;;32.25;46.75;100952.88;5000802;28;66351;-41
2021/12/31 07:58:16;;;;;;;4.00;3.70;;;;;;;32.33;46.87;100957.19;5004957;28;70927;-40
2021/12/31 08:00:46;;;;;;;4.50;4.10;;;;;;;32.35;46.46;100957.78;5002588;28;65640;-40
2021/12/31 08:03:17;;;;;;;5.03;3.45;;;;;;;32.37;46.51;100955.66;5028968;28;69823;-40
2021/12/31 08:05:47;;;;;;;4.20;3.90;;;;;;;32.39;46.68;100959.78;5001153;28;66050;-40
2021/12/31 08:08:19;;;;;;;5.47;3.55;;;;;;;32.41;46.36;100965.84;5010502;28;69768;-40
2021/12/31 08:10:50;;;;;;;4.30;3.67;;;;;;;32.42;46.54;100964.75;5014736;28;65580;-39
2021/12/31 08:13:27;;;;;;;3.83;3.53;;;;;;;32.44;46.45;100957.22;5009163;28;69003;-40
2021/12/31 08:15:58;;;;;;;8.48;3.40;;;;;;;32.46;46.58;100960.59;5014720;28;64275;-40
2021/12/31 08:18:28;;;;;;;3.60;3.30;;;;;;;32.51;46.33;100957.16;5009238;28;69334;-40
2021/12/31 08:20:59;;;;;;;4.88;3.50;;;;;;;32.53;46.32;100954.22;5008329;28;66490;-40
2021/12/31 08:23:29;;;;;;;4.45;3.33;;;;;;;32.56;46.19;100967.34;5011517;28;70159;-40
2021/12/31 08:26:02;;;;;;;3.67;3.28;;;;;;;32.58;46.29;100951.66;5011656;28;66572;-40
2021/12/31 08:28:32;;;;;;;3.20;3.00;;;;;;;32.60;46.21;100954.97;5007657;28;69813;-40
2021/12/31 08:31:03;;;;;;;3.53;3.22;;;;;;;32.64;46.48;100953.44;5012979;28;66411;-41
2021/12/31 08:33:33;;;;;;;4.45;3.65;;;;;;;32.63;46.27;100952.63;5009172;28;70321;-39
2021/12/31 08:36:04;;;;;;;3.47;3.17;;;;;;;32.68;46.16;100957.34;5011307;28;66002;-41
2021/12/31 08:38:34;;;;;;;4.13;3.65;;;;;;;32.71;46.12;100954.19;5010786;28;70650;-40
2021/12/31 08:41:05;;;;;;;4.05;3.15;;;;;;;32.72;46.02;100953.13;5012019;28;66126;-40
2021/12/31 08:43:56;;;;;;;4.13;3.75;;;;;;;32.76;46.08;100957.00;5014854;28;69010;-40
2021/12/31 08:46:27;;;;;;;4.43;3.20;;;;;;;32.73;46.19;100949.31;5014836;28;66529;-40
2021/12/31 08:48:57;;;;;;;4.05;3.60;;;;;;;32.81;46.04;100954.44;5014535;28;70286;-39
2021/12/31 08:51:28;;;;;;;5.45;3.17;;;;;;;32.83;46.04;100955.03;5013411;28;66066;-40
2021/12/31 08:53:58;;;;;;;3.55;3.25;;;;;;;32.86;46.04;100953.75;5010767;28;70270;-40
2021/12/31 08:56:29;;;;;;;3.35;2.83;;;;;;;32.88;45.89;100962.50;5009600;28;66272;-40
2021/12/31 08:58:59;;;;;;;3.28;3.00;;;;;;;32.89;46.09;100950.56;5002734;28;69198;-40
2021/12/31 09:01:30;;;;;;;3.45;3.20;;;;;;;32.92;45.92;100961.78;5004319;28;66572;-41
2021/12/31 09:04:00;;;;;;;3.50;2.88;;;;;;;32.94;45.65;100961.56;5008852;28;69668;-39
2021/12/31 09:06:31;;;;;;;4.63;3.00;;;;;;;32.94;46.01;100962.38;5010975;28;66059;-39
2021/12/31 09:09:03;;;;;;;3.92;3.03;;;;;;;32.96;45.88;100961.31;5011060;28;70040;-39
2021/12/31 09:11:33;;;;;;;4.13;2.90;;;;;;;32.96;45.93;100969.47;5007595;28;65905;-39
2021/12/31 09:14:05;;;;;;;3.95;2.90;;;;;;;32.99;45.81;100974.44;5011590;28;70301;-40
2021/12/31 09:16:36;;;;;;;2.92;2.70;;;;;;;32.99;45.93;100980.72;5014620;28;66266;-40
2021/12/31 09:19:08;;;;;;;2.92;2.72;;;;;;;32.99;45.54;100978.00;5006147;28;69395;-41
2021/12/31 09:21:38;;;;;;;5.28;3.03;;;;;;;33.01;45.88;100988.66;5010359;28;65180;-40
2021/12/31 09:24:09;;;;;;;3.67;3.03;;;;;;;33.00;46.27;100990.56;5008958;28;70208;-39
2021/12/31 09:26:40;;;;;;;3.67;3.33;;;;;;;33.02;45.68;100996.59;5010042;28;65410;-40
2021/12/31 09:29:10;;;;;;;2.95;2.75;;;;;;;33.01;46.01;100994.09;5009960;28;70676;-40
2021/12/31 09:31:40;;;;;;;3.47;3.10;;;;;;;33.05;45.76;101007.00;5014659;28;66310;-40
2021/12/31 09:34:11;;;;;;;3.88;3.50;;;;;;;32.97;45.97;100992.88;5016420;28;70358;-40
2021/12/31 09:36:41;;;;;;;3.95;3.65;;;;;;;33.04;45.92;101007.22;5016501;28;66055;-40
2021/12/31 09:39:12;;;;;;;2.80;2.60;;;;;;;33.05;45.98;101007.00;5013075;28;70263;-40
2021/12/31 09:41:45;;;;;;;3.08;2.88;;;;;;;33.04;45.90;101004.50;5009909;28;66357;-40
2021/12/31 09:44:15;;;;;;;4.07;2.67;;;;;;;33.06;45.74;101008.66;5016895;28;70559;-39
2021/12/31 09:46:46;;;;;;;3.03;2.83;;;;;;;33.07;45.81;101017.63;5016205;28;66382;-39
2021/12/31 09:49:16;;;;;;;3.47;3.17;;;;;;;33.07;45.94;101014.91;5017029;28;69938;-40
2021/12/31 09:51:47;;;;;;;3.25;2.97;;;;;;;33.08;45.93;101011.16;5016549;28;66766;-40
2021/12/31 09:54:22;;;;;;;3.40;3.10;;;;;;;33.08;46.06;101019.28;5008338;28;69714;-39
2021/12/31 09:56:52;;;;;;;3.35;3.15;;;;;;;33.07;45.97;101015.75;5011282;28;66297;-39
2021/12/31 09:59:24;;;;;;;3.78;3.38;;;;;;;33.08;46.09;101016.56;5010598;28;69422;-40
2021/12/31 10:01:56;;;;;;;4.60;3.03;;;;;;;33.07;46.14;101023.91;5012634;28;66425;-41
2021/12/31 10:04:53;;;;;;;11.93;3.40;;;;;;;33.00;46.19;101025.88;5014621;28;69979;-40
2021/12/31 10:07:27;;;;;;;3.95;3.55;;;;;;;33.06;46.21;101035.81;5017143;28;66371;-40
2021/12/31 10:10:14;;;;;;;18.50;4.38;;;;;;;33.04;47.65;101039.81;5019014;28;70209;-41
2021/12/31 10:12:59;;;;;;;11.65;4.75;;;;;;;33.08;47.14;101054.63;5005072;28;65151;-41
2021/12/31 10:15:39;;;;;;;8.15;4.15;;;;;;;33.01;47.69;101046.56;5015062;28;70321;-40
2021/12/31 10:18:15;;;;;;;5.38;4.88;;;;;;;33.07;47.45;101063.81;5016310;28;65698;-40
2021/12/31 10:20:52;;;;;;;5.22;4.68;;;;;;;33.02;48.27;101055.56;5018669;28;70271;-40
2021/12/31 10:23:23;;;;;;;8.38;5.28;;;;;;;33.05;48.03;101066.78;5018798;28;66578;-41
2021/12/31 10:26:10;;;;;;;9.27;4.57;;;;;;;32.85;48.47;101047.19;5013544;28;70191;-41
2021/12/31 10:28:57;;;;;;;10.45;5.60;;;;;;;32.82;48.62;101045.75;5013924;28;66772;-40
2021/12/31 10:31:30;;;;;;;7.88;5.25;;;;;;;33.00;48.36;101069.38;5017270;28;69662;-41
2021/12/31 10:34:00;;;;;;;7.43;5.65;;;;;;;32.99;48.53;101077.69;5019138;28;66939;-40
2021/12/31 10:36:32;;;;;;;12.35;5.95;;;;;;;33.00;48.55;101079.41;5009631;28;69650;-39
2021/12/31 10:39:15;;;;;;;;;;;;;;;32.78;49.33;101071.72;5017883;28;66324;-41
2021/12/31 10:42:01;;;;;;;12.70;5.35;;;;;;;32.92;48.59;101073.19;5012388;28;69292;-41
2021/12/31 10:44:47;;;;;;;10.13;6.25;;;;;;;32.93;49.31;101077.59;5016213;28;65993;-40
2021/12/31 10:47:32;;;;;;;8.60;6.32;;;;;;;32.96;49.32;101086.31;5015790;28;70653;-40
2021/12/31 10:50:07;;;;;;;15.27;6.80;;;;;;;32.93;48.96;101095.75;5017631;28;65654;-41
2021/12/31 10:53:14;;;;;;;8.13;6.03;;;;;;;32.83;50.13;101090.06;5013493;28;70040;-40
2021/12/31 10:55:46;;;;;;;14.02;6.93;;;;;;;32.88;49.22;101085.59;5029937;28;66391;-40
2021/12/31 10:58:22;;;;;;;12.07;7.65;;;;;;;32.74;49.51;101070.53;5014979;28;69290;-40
2021/12/31 11:00:53;;;;;;;10.43;6.57;;;;;;;32.87;49.53;101092.06;5016295;28;65617;-41
2021/12/31 11:03:23;;;;;;;13.32;7.80;;;;;;;32.89;49.53;101100.81;5016373;28;69553;-41
2021/12/31 11:05:57;;;;;;;8.70;7.53;;;;;;;32.68;49.95;101068.69;5009464;28;65502;-40
2021/12/31 11:08:29;;;;;;;10.38;7.35;;;;;;;32.80;49.97;101096.78;5028526;28;69808;-41
2021/12/31 11:11:04;;;;;;;13.07;7.80;;;;;;;32.87;50.08;101102.09;5014021;28;43210;-42
2021/12/31 11:13:35;;;;;;;15.98;8.18;;;;;;;32.84;50.30;101106.13;5015259;28;69926;-42
2021/12/31 11:16:05;;;;;;;10.32;7.95;;;;;;;32.83;50.53;101107.19;5014651;28;66033;-42
2021/12/31 11:18:36;;;;;;;12.40;8.70;;;;;;;32.81;50.22;101109.28;5010344;28;68616;-40
2021/12/31 11:21:10;;;;;;;16.23;8.63;;;;;;;32.78;50.34;101103.50;5020742;28;66423;-42
2021/12/31 11:23:43;;;;;;;14.00;7.95;;;;;;;32.80;50.69;101115.78;5014816;28;70234;-41
2021/12/31 11:26:25;;;;;;;12.98;7.80;;;;;;;32.76;50.77;101117.28;5014642;28;66019;-42
2021/12/31 11:29:13;;;;;;;16.42;8.65;;;;;;;32.75;50.61;101114.81;5015092;28;69213;-42
2021/12/31 11:31:44;;;;;;;18.70;9.10;;;;;;;32.75;50.94;101115.63;5016833;28;65718;-42
2021/12/31 11:34:16;;;;;;;16.40;8.50;;;;;;;32.71;50.78;101117.16;5003014;28;70443;-43
2021/12/31 11:36:52;;;;;;;14.48;8.05;;;;;;;32.43;51.00;101069.63;5002811;28;64580;-41
2021/12/31 11:39:33;;;;;;;13.07;8.10;;;;;;;32.70;51.23;101123.63;5018032;28;70180;-41
2021/12/31 11:42:06;;;;;;;14.85;8.60;;;;;;;32.65;51.36;101115.34;5016376;28;65174;-42
2021/12/31 11:45:05;;;;;;;16.90;8.77;;;;;;;32.64;51.48;101124.53;5017216;28;70413;-41
2021/12/31 11:47:37;;;;;;;17.30;9.75;;;;;;;32.64;51.53;101127.25;5015780;28;64914;-43
2021/12/31 11:50:24;;;;;;;;;;;;;;;32.45;52.36;101139.97;5014860;28;70250;-41
2021/12/31 11:53:03;;;;;;;18.23;9.55;;;;;;;32.62;51.65;101142.94;5011493;28;66574;-41